Clynderwen, United Kingdom
Current Conditions -  °F | °C
As of 2:50 PM on Thursday 30 Oct 2014 (Local Time) from EGOP Reporting Station
Broken Clouds Broken Clouds  
Wind Chill: 61°   Ceiling: 2300
Heat Index: 61°   Visibility: 6mi
Dew Point: 59°   Wind: 15mph
Humidity: 94%   Direction: 170°S
Pressure: 29.97"   Gusts: NA
Location:  51.83°N, 4.73°W
Report Text: EGOP 301450Z 17013KT 9999 BKN023 BKN050 16/15 Q1015 WHT
Loading
Personal Weather Stations






























Interactive Weather Map
Tropical Storm Tracking
New forecast layout! Learn more

10-Day Weather Forecast

Advertisements
Track Severe Weather on mobile